.
WxDataArchive / Data Records for 2015-07-11
2015-07-10 July 2015 2015-07-12

Data Records for Saturday, 11 July 2015

Time	Temp	Chill	HIndex	Humid	Dewpt	 Wind 	HiWind	WindDir	Rain 	Barom
-----	----	-----	------	-----	-----	------	------	-------	-----	-----
00:00	62.6	62.6	62.6	88	59.0	0	0	---	0.00	30.102 
00:05	62.6	62.6	62.6	89	59.3	0	0	---	0.00	30.102 
00:10	62.4	62.4	62.4	89	59.1	0	0	---	0.00	30.102 
00:15	62.3	62.3	62.3	89	59.0	0	0	---	0.00	30.101 
00:20	62.1	62.1	62.1	89	58.8	0	0	---	0.00	30.101 
00:25	62.1	62.1	62.1	90	59.1	0	0	---	0.00	30.101 
00:30	62.0	62.0	62.0	90	59.0	0	0	---	0.00	30.101 
00:35	61.8	61.8	61.8	90	58.8	0	0	---	0.00	30.101 
00:40	61.6	61.6	61.6	90	58.6	0	0	---	0.00	30.101 
00:45	61.6	61.6	61.6	91	58.9	0	0	---	0.00	30.101 
00:50	61.6	61.6	61.6	91	58.9	0	0	---	0.00	30.101 
00:55	61.5	61.5	61.5	91	58.8	0	0	---	0.00	30.101 
01:00	61.3	61.3	61.3	91	58.6	0	0	---	0.00	30.095 
01:05	61.2	61.2	61.2	91	58.5	0	0	---	0.00	30.095 
01:10	61.0	61.0	61.0	91	58.4	0	0	---	0.00	30.095 
01:15	60.9	60.9	60.9	91	58.3	0	0	---	0.00	30.098 
01:20	60.9	60.9	60.9	91	58.3	0	0	---	0.00	30.098 
01:25	60.7	60.7	60.7	91	58.1	0	0	---	0.00	30.098 
01:30	60.5	60.5	60.5	91	57.9	0	0	---	0.00	30.094 
01:35	60.5	60.5	60.5	92	58.2	0	0	---	0.00	30.094 
01:40	60.4	60.4	60.4	92	58.1	0	0	---	0.00	30.094 
01:45	60.2	60.2	60.2	92	57.9	0	0	---	0.00	30.093 
01:50	60.2	60.2	60.2	92	57.9	0	0	---	0.00	30.093 
01:55	60.1	60.1	60.1	92	57.8	0	0	---	0.00	30.093 
02:00	60.1	60.1	60.1	92	57.8	0	0	---	0.00	30.090 
02:05	59.9	59.9	59.9	92	57.6	0	0	---	0.00	30.090 
02:10	59.8	59.8	59.8	92	57.5	0	0	---	0.00	30.090 
02:15	59.8	59.8	59.8	92	57.5	0	0	---	0.00	30.089 
02:20	59.6	59.6	59.6	92	57.3	0	0	---	0.00	30.089 
02:25	59.5	59.5	59.5	92	57.2	0	0	---	0.00	30.089 
02:30	59.5	59.5	59.5	92	57.2	0	0	---	0.00	30.094 
02:35	59.5	59.5	59.5	93	57.5	0	0	---	0.00	30.094 
02:40	59.5	59.5	59.5	93	57.5	0	0	---	0.00	30.094 
02:45	59.3	59.3	59.3	93	57.3	0	0	---	0.00	30.100 
02:50	59.3	59.3	59.3	93	57.3	0	0	---	0.00	30.100 
02:55	59.2	59.2	59.2	93	57.2	0	0	---	0.00	30.100 
03:00	59.2	59.2	59.2	93	57.2	0	0	---	0.00	30.099 
03:05	59.0	59.0	59.0	93	57.0	0	0	---	0.00	30.099 
03:10	59.0	59.0	59.0	93	57.0	0	0	---	0.00	30.099 
03:15	58.9	58.9	58.9	93	56.9	0	0	---	0.00	30.099 
03:20	58.7	58.7	58.7	93	56.7	0	0	---	0.00	30.099 
03:25	58.7	58.7	58.7	93	56.7	0	0	---	0.00	30.099 
03:30	58.6	58.6	58.6	93	56.6	0	0	---	0.00	30.102 
03:35	58.6	58.6	58.6	93	56.6	0	0	---	0.00	30.102 
03:40	58.4	58.4	58.4	93	56.4	0	0	---	0.00	30.102 
03:45	58.4	58.4	58.4	94	56.7	0	0	---	0.00	30.104 
03:50	58.6	58.6	58.6	94	56.9	0	0	---	0.00	30.104 
03:55	58.6	58.6	58.6	94	56.9	0	0	---	0.00	30.104 
04:00	58.6	58.6	58.6	94	56.9	0	0	---	0.00	30.103 
04:05	58.4	58.4	58.4	94	56.7	0	0	---	0.00	30.103 
04:10	58.4	58.4	58.4	94	56.7	0	0	---	0.00	30.103 
04:15	58.3	58.3	58.3	94	56.6	0	0	---	0.00	30.105 
04:20	58.1	58.1	58.1	94	56.4	0	0	---	0.00	30.105 
04:25	58.0	58.0	58.0	94	56.3	0	0	---	0.00	30.105 
04:30	58.0	58.0	58.0	94	56.3	0	0	---	0.00	30.107 
04:35	57.8	57.8	57.8	94	56.1	0	0	---	0.00	30.107 
04:40	57.8	57.8	57.8	94	56.1	0	0	---	0.00	30.107 
04:45	57.8	57.8	57.8	94	56.1	0	0	---	0.00	30.108 
04:50	57.6	57.6	57.6	94	55.9	0	0	---	0.00	30.108 
04:55	57.6	57.6	57.6	94	55.9	0	0	---	0.00	30.108 
05:00	57.5	57.5	57.5	94	55.8	0	0	---	0.00	30.106 
05:05	57.5	57.5	57.5	94	55.8	0	0	---	0.00	30.106 
05:10	57.3	57.3	57.3	94	55.6	0	0	---	0.00	30.106 
05:15	57.3	57.3	57.3	94	55.6	0	0	---	0.00	30.108 
05:20	57.3	57.3	57.3	94	55.6	0	0	---	0.00	30.108 
05:25	57.3	57.3	57.3	94	55.6	0	0	---	0.00	30.108 
05:30	57.2	57.2	57.2	94	55.5	0	0	---	0.00	30.113 
05:35	57.2	57.2	57.2	94	55.5	0	0	---	0.00	30.113 
05:40	57.2	57.2	57.2	94	55.5	0	0	---	0.00	30.113 
05:45	57.0	57.0	57.0	94	55.3	0	0	---	0.00	30.119 
05:50	57.0	57.0	57.0	95	55.6	0	0	---	0.00	30.119 
05:55	57.0	57.0	57.0	95	55.6	0	0	---	0.00	30.119 
06:00	57.0	57.0	57.0	95	55.6	0	0	---	0.00	30.124 
06:05	57.0	57.0	57.0	95	55.6	0	0	---	0.00	30.124 
06:10	57.0	57.0	57.0	95	55.6	0	0	---	0.00	30.124 
06:15	57.2	57.2	57.2	95	55.8	0	0	---	0.00	30.126 
06:20	57.2	57.2	57.2	95	55.8	0	0	---	0.00	30.126 
06:25	57.2	57.2	57.2	95	55.8	0	0	---	0.00	30.126 
06:30	57.0	57.0	57.0	95	55.6	0	0	---	0.00	30.135 
06:35	57.0	57.0	57.0	95	55.6	0	0	---	0.00	30.135 
06:40	57.0	57.0	57.0	95	55.6	0	0	---	0.00	30.135 
06:45	57.0	57.0	57.0	95	55.6	0	0	---	0.00	30.138 
06:50	56.9	56.9	56.9	95	55.5	0	0	---	0.00	30.138 
06:55	57.0	57.0	57.0	95	55.6	0	0	---	0.00	30.138 
07:00	57.2	57.2	57.2	95	55.8	0	0	---	0.00	30.139 
07:05	57.5	57.5	57.5	95	56.1	0	0	---	0.00	30.139 
07:10	57.8	57.8	57.8	95	56.4	0	0	---	0.00	30.139 
07:15	58.0	58.0	58.0	95	56.6	0	0	---	0.00	30.135 
07:20	58.3	58.3	58.3	96	57.2	0	0	---	0.00	30.135 
07:25	58.7	58.7	58.7	96	57.6	0	1	202	0.00	30.135 
07:30	59.0	59.0	59.0	96	57.9	0	0	---	0.00	30.134 
07:35	59.5	59.5	59.5	96	58.4	0	0	---	0.00	30.134 
07:40	60.1	60.1	60.1	96	59.0	0	0	---	0.00	30.134 
07:45	60.5	60.5	60.5	96	59.4	0	0	---	0.00	30.134 
07:50	61.0	61.0	61.0	96	59.8	0	0	---	0.00	30.134 
07:55	61.5	61.5	61.5	96	60.3	0	0	---	0.00	30.134 
08:00	62.6	62.6	62.6	96	61.4	0	1	0	0.00	30.132 
08:05	63.4	63.4	63.4	95	61.9	0	1	0	0.00	30.132 
08:10	64.3	64.3	64.3	95	62.8	0	1	0	0.00	30.132 
08:15	65.0	65.0	65.0	93	62.9	0	0	---	0.00	30.132 
08:20	65.3	65.3	65.3	91	62.6	0	1	0	0.00	30.132 
08:25	66.0	66.0	66.0	90	63.0	0	0	---	0.00	30.132 
08:30	66.8	66.8	66.8	89	63.4	0	0	---	0.00	30.131 
08:35	67.4	67.4	67.4	85	62.7	0	3	0	0.00	30.131 
08:40	68.1	68.1	68.1	84	63.1	0	1	0	0.00	30.131 
08:45	68.6	68.6	68.6	83	63.2	0	3	0	0.00	30.129 
08:50	69.1	69.1	69.1	81	63.0	0	2	0	0.00	30.129 
08:55	69.8	69.8	69.8	81	63.7	0	1	0	0.00	30.129 
09:00	70.3	70.3	70.3	78	63.1	0	3	0	0.00	30.132 
09:05	70.8	70.8	70.8	78	63.6	0	2	0	0.00	30.132 
09:10	70.8	70.8	70.8	75	62.5	1	4	0	0.00	30.132 
09:15	70.8	70.8	70.8	76	62.8	1	3	22	0.00	30.143 
09:20	70.9	70.9	70.9	77	63.3	0	2	22	0.00	30.143 
09:25	71.6	71.6	71.6	77	64.0	0	1	22	0.00	30.143 
09:30	72.3	72.3	72.3	73	63.1	0	3	22	0.00	30.151 
09:35	72.7	72.7	72.7	73	63.5	0	3	22	0.00	30.151 
09:40	73.2	73.2	73.2	72	63.6	0	1	22	0.00	30.151 
09:45	74.0	74.0	74.0	69	63.2	0	1	22	0.00	30.151 
09:50	74.9	74.9	74.9	67	63.2	0	1	22	0.00	30.151 
09:55	75.1	75.1	77.0	67	63.4	0	3	22	0.00	30.151 
10:00	75.3	75.3	77.0	69	64.4	0	0	---	0.00	30.154 
10:05	75.6	75.6	77.5	66	63.4	0	2	22	0.00	30.154 
10:10	75.6	75.6	77.4	67	63.9	0	2	22	0.00	30.154 
10:15	75.4	75.4	77.3	66	63.2	0	1	22	0.00	30.154 
10:20	75.6	75.6	77.5	65	63.0	0	1	22	0.00	30.154 
10:25	76.0	76.0	77.9	64	62.9	0	3	22	0.00	30.154 
10:30	75.6	75.6	77.4	67	63.9	1	4	68	0.00	30.144 
10:35	75.1	75.1	76.9	68	63.8	1	4	68	0.00	30.144 
10:40	75.4	75.4	77.2	68	64.1	0	2	68	0.00	30.144 
10:45	75.6	75.6	77.5	66	63.4	0	1	68	0.00	30.145 
10:50	76.1	76.1	78.0	65	63.5	0	3	68	0.00	30.145 
10:55	76.0	76.0	77.9	65	63.4	1	6	68	0.00	30.145 
11:00	75.6	75.6	77.5	65	63.0	1	4	90	0.00	30.143 
11:05	75.8	75.8	77.7	64	62.7	1	3	90	0.00	30.143 
11:10	76.0	76.0	77.9	63	62.5	1	3	90	0.00	30.143 
11:15	76.1	76.1	78.1	60	61.2	0	3	90	0.00	30.145 
11:20	76.3	76.3	78.2	60	61.4	0	2	90	0.00	30.145 
11:25	76.1	76.1	78.1	59	60.7	0	1	90	0.00	30.145 
11:30	76.7	76.7	78.5	61	62.2	0	3	90	0.00	30.143 
11:35	76.7	76.7	78.5	57	60.3	1	4	90	0.00	30.143 
11:40	76.8	76.8	78.6	60	61.8	0	2	90	0.00	30.143 
11:45	76.8	76.8	78.6	60	61.8	0	2	90	0.00	30.144 
11:50	77.0	77.0	78.7	55	59.6	0	2	90	0.00	30.144 
11:55	77.2	77.2	78.8	54	59.2	0	2	90	0.00	30.144 
12:00	77.2	77.2	78.8	53	58.7	0	2	90	0.00	30.153 
12:05	77.2	77.2	78.7	51	57.6	0	2	90	0.00	30.153 
12:10	77.2	77.2	78.8	52	58.2	0	1	90	0.00	30.153 
12:15	77.6	77.6	79.0	50	57.5	0	2	90	0.00	30.153 
12:20	77.9	77.9	79.2	50	57.7	0	2	90	0.00	30.153 
12:25	78.1	78.1	79.3	50	57.9	0	2	112	0.00	30.153 
12:30	78.3	78.3	79.6	53	59.7	0	1	112	0.00	30.152 
12:35	78.6	78.6	79.8	53	60.0	0	2	112	0.00	30.152 
12:40	78.8	78.8	79.9	52	59.7	0	2	112	0.00	30.152 
12:45	78.5	78.5	79.6	51	58.8	0	1	112	0.00	30.149 
12:50	78.5	78.5	79.6	50	58.3	0	2	112	0.00	30.149 
12:55	78.5	78.5	79.6	51	58.8	1	3	112	0.00	30.149 
13:00	78.3	78.3	79.6	52	59.2	0	3	112	0.00	30.146 
13:05	78.5	78.5	79.8	53	59.9	0	1	112	0.00	30.146 
13:10	78.6	78.6	79.8	52	59.5	0	3	112	0.00	30.146 
13:15	78.6	78.6	79.7	50	58.4	0	2	112	0.00	30.145 
13:20	78.5	78.5	79.6	51	58.8	0	1	112	0.00	30.145 
13:25	78.1	78.1	79.3	50	57.9	1	2	112	0.00	30.145 
13:30	78.5	78.5	79.6	50	58.3	0	2	112	0.00	30.145 
13:35	78.8	78.8	79.7	49	58.0	0	1	112	0.00	30.145 
13:40	78.8	78.8	79.6	46	56.2	0	2	68	0.00	30.145 
13:45	78.8	78.8	79.6	47	56.8	1	2	68	0.00	30.144 
13:50	78.5	78.5	79.5	49	57.7	0	2	68	0.00	30.144 
13:55	78.3	78.3	79.3	48	57.0	0	2	22	0.00	30.144 
14:00	78.1	78.1	79.3	50	57.9	0	1	22	0.00	30.145 
14:05	78.3	78.3	79.3	47	56.4	0	3	45	0.00	30.145 
14:10	78.5	78.5	79.5	49	57.7	0	2	45	0.00	30.145 
14:15	78.5	78.5	79.5	49	57.7	0	1	45	0.00	30.144 
14:20	78.6	78.6	79.5	48	57.2	0	2	45	0.00	30.144 
14:25	78.8	78.8	79.7	48	57.4	1	4	112	0.00	30.144 
14:30	79.0	79.0	80.0	50	58.7	0	2	112	0.00	30.144 
14:35	79.0	79.0	80.0	50	58.7	0	2	112	0.00	30.144 
14:40	79.2	79.2	80.2	51	59.5	0	1	112	0.00	30.144 
14:45	79.2	79.2	80.1	49	58.4	0	3	112	0.00	30.140 
14:50	79.2	79.2	79.9	47	57.2	0	2	112	0.00	30.140 
14:55	79.0	79.0	79.9	49	58.2	0	1	112	0.00	30.140 
15:00	79.2	79.2	80.1	49	58.4	0	1	112	0.00	30.132 
15:05	79.4	79.4	80.1	48	58.0	0	1	112	0.00	30.132 
15:10	79.4	79.4	80.0	46	56.8	0	1	112	0.00	30.132 
15:15	79.4	79.4	80.2	49	58.5	0	2	112	0.00	30.128 
15:20	79.4	79.4	80.1	47	57.4	0	2	112	0.00	30.128 
15:25	79.0	79.0	79.8	47	57.0	0	2	112	0.00	30.128 
15:30	78.6	78.6	79.5	48	57.2	0	2	112	0.00	30.122 
15:35	78.5	78.5	79.5	48	57.2	0	2	112	0.00	30.122 
15:40	78.5	78.5	79.5	49	57.7	0	1	112	0.00	30.122 
15:45	78.6	78.6	79.6	49	57.8	0	2	112	0.00	30.116 
15:50	78.8	78.8	79.8	50	58.6	0	1	112	0.00	30.116 
15:55	79.4	79.4	80.4	51	59.7	0	1	112	0.00	30.116 
16:00	79.9	79.9	80.4	46	57.2	1	4	112	0.00	30.114 
16:05	80.3	80.3	81.2	51	60.5	0	1	112	0.00	30.114 
16:10	80.5	80.5	81.0	48	59.0	0	1	112	0.00	30.114 
16:15	80.5	80.5	80.9	47	58.4	0	2	112	0.00	30.106 
16:20	79.9	79.9	80.6	49	59.0	0	2	112	0.00	30.106 
16:25	79.4	79.4	80.1	47	57.4	1	3	112	0.00	30.106 
16:30	79.0	79.0	80.0	50	58.7	0	2	112	0.00	30.100 
16:35	78.8	78.8	79.9	51	59.1	0	1	112	0.00	30.100 
16:40	78.8	78.8	79.8	50	58.6	0	1	112	0.00	30.100 
16:45	78.6	78.6	79.7	51	58.9	1	3	112	0.00	30.096 
16:50	78.3	78.3	79.4	50	58.1	1	3	112	0.00	30.096 
16:55	78.3	78.3	79.6	53	59.7	0	3	112	0.00	30.096 
17:00	78.5	78.5	79.6	51	58.8	0	2	112	0.00	30.091 
17:05	78.6	78.6	79.8	52	59.5	1	3	112	0.00	30.091 
17:10	78.6	78.6	79.7	51	58.9	0	2	112	0.00	30.091 
17:15	78.6	78.6	79.8	52	59.5	0	4	68	0.00	30.094 
17:20	78.6	78.6	79.7	51	58.9	0	2	68	0.00	30.094 
17:25	78.8	78.8	79.9	52	59.7	0	1	68	0.00	30.094 
17:30	79.2	79.2	80.2	51	59.5	0	1	68	0.00	30.092 
17:35	79.4	79.4	80.1	48	58.0	0	1	90	0.00	30.092 
17:40	79.2	79.2	80.1	49	58.4	1	4	90	0.00	30.092 
17:45	78.8	78.8	79.8	50	58.6	0	1	135	0.00	30.089 
17:50	78.8	78.8	79.9	51	59.1	0	1	135	0.00	30.089 
17:55	78.8	78.8	79.7	49	58.0	1	3	112	0.00	30.089 
18:00	78.8	78.8	79.8	50	58.6	0	0	---	0.00	30.093 
18:05	78.6	78.6	79.7	50	58.4	0	3	112	0.00	30.093 
18:10	78.6	78.6	79.7	51	58.9	0	1	112	0.00	30.093 
18:15	78.5	78.5	79.6	51	58.8	0	1	112	0.00	30.087 
18:20	78.3	78.3	79.4	50	58.1	0	1	112	0.00	30.087 
18:25	78.1	78.1	79.4	52	59.0	0	1	135	0.00	30.087 
18:30	77.7	77.7	79.1	52	58.6	0	1	135	0.00	30.088 
18:35	77.6	77.6	79.1	53	59.1	0	1	135	0.00	30.088 
18:40	77.4	77.4	78.9	53	58.9	0	1	135	0.00	30.088 
18:45	77.4	77.4	79.0	54	59.4	0	1	135	0.00	30.084 
18:50	77.2	77.2	78.8	53	58.7	0	1	135	0.00	30.084 
18:55	77.2	77.2	78.8	54	59.2	0	1	135	0.00	30.084 
19:00	77.2	77.2	78.9	55	59.8	0	1	135	0.00	30.076 
19:05	77.0	77.0	78.7	56	60.1	0	1	135	0.00	30.076 
19:10	77.0	77.0	78.7	56	60.1	0	0	---	0.00	30.076 
19:15	77.0	77.0	78.7	56	60.1	0	1	135	0.00	30.067 
19:20	76.8	76.8	78.6	55	59.4	0	1	135	0.00	30.067 
19:25	76.7	76.7	78.5	56	59.8	0	1	135	0.00	30.067 
19:30	76.5	76.5	78.4	56	59.6	0	1	22	0.00	30.063 
19:35	76.5	76.5	78.4	58	60.6	0	0	---	0.00	30.063 
19:40	76.3	76.3	78.3	57	59.9	0	0	---	0.00	30.063 
19:45	76.1	76.1	78.1	58	60.2	0	1	22	0.00	30.062 
19:50	76.1	76.1	78.1	58	60.2	0	0	---	0.00	30.062 
19:55	76.0	76.0	78.0	59	60.6	0	0	---	0.00	30.062 
20:00	75.8	75.8	77.9	59	60.4	0	0	---	0.00	30.054 
20:05	75.6	75.6	77.8	59	60.2	0	1	22	0.00	30.054 
20:10	75.4	75.4	77.6	60	60.5	0	1	22	0.00	30.054 
20:15	75.3	75.3	77.5	60	60.4	0	0	---	0.00	30.046 
20:20	75.1	75.1	77.4	60	60.2	0	1	22	0.00	30.046 
20:25	74.9	74.9	74.9	60	60.1	0	2	22	0.00	30.046 
20:30	74.9	74.9	74.9	60	60.1	0	1	22	0.00	30.044 
20:35	74.7	74.7	74.7	61	60.3	0	0	---	0.00	30.044 
20:40	74.6	74.6	74.6	60	59.8	0	1	22	0.00	30.044 
20:45	74.4	74.4	74.4	61	60.1	0	2	22	0.00	30.033 
20:50	74.4	74.4	74.4	61	60.1	0	0	---	0.00	30.033 
20:55	74.2	74.2	74.2	62	60.3	0	0	---	0.00	30.033 
21:00	74.0	74.0	74.0	62	60.1	0	0	---	0.00	30.045 
21:05	73.9	73.9	73.9	62	60.0	0	0	---	0.00	30.045 
21:10	73.7	73.7	73.7	63	60.3	0	0	---	0.00	30.045 
21:15	73.7	73.7	73.7	64	60.7	0	0	---	0.00	30.038 
21:20	73.3	73.3	73.3	64	60.4	0	1	22	0.00	30.038 
21:25	73.2	73.2	73.2	64	60.3	0	0	---	0.00	30.038 
21:30	73.2	73.2	73.2	64	60.3	0	0	---	0.00	30.042 
21:35	73.0	73.0	73.0	64	60.1	0	0	---	0.00	30.042 
21:40	72.8	72.8	72.8	65	60.3	0	0	---	0.00	30.042 
21:45	72.7	72.7	72.7	65	60.2	0	0	---	0.00	30.043 
21:50	72.5	72.5	72.5	65	60.0	0	1	22	0.00	30.043 
21:55	72.5	72.5	72.5	65	60.0	0	1	22	0.00	30.043 
22:00	72.5	72.5	72.5	65	60.0	0	0	---	0.00	30.040 
22:05	72.3	72.3	72.3	65	59.9	0	0	---	0.00	30.040 
22:10	72.3	72.3	72.3	65	59.9	0	0	---	0.00	30.040 
22:15	72.3	72.3	72.3	65	59.9	0	0	---	0.00	30.043 
22:20	72.1	72.1	72.1	65	59.7	0	0	---	0.00	30.043 
22:25	72.1	72.1	72.1	65	59.7	0	0	---	0.00	30.043 
22:30	72.0	72.0	72.0	65	59.6	0	0	---	0.00	30.044 
22:35	72.0	72.0	72.0	65	59.6	0	0	---	0.00	30.044 
22:40	71.8	71.8	71.8	65	59.4	0	0	---	0.00	30.044 
22:45	71.8	71.8	71.8	65	59.4	0	0	---	0.00	30.048 
22:50	71.6	71.6	71.6	65	59.2	0	0	---	0.00	30.048 
22:55	71.6	71.6	71.6	66	59.6	0	0	---	0.00	30.048 
23:00	71.6	71.6	71.6	66	59.6	0	0	---	0.00	30.054 
23:05	71.5	71.5	71.5	65	59.1	0	0	---	0.00	30.054 
23:10	71.5	71.5	71.5	66	59.5	0	0	---	0.00	30.054 
23:15	71.3	71.3	71.3	66	59.3	0	0	---	0.00	30.043 
23:20	71.3	71.3	71.3	66	59.3	0	0	---	0.00	30.043 
23:25	71.3	71.3	71.3	65	58.9	0	0	---	0.00	30.043 
23:30	71.1	71.1	71.1	66	59.2	0	0	---	0.00	30.039 
23:35	71.1	71.1	71.1	66	59.2	0	0	---	0.00	30.039 
23:40	70.9	70.9	70.9	66	59.0	0	0	---	0.00	30.039 
23:45	70.9	70.9	70.9	67	59.4	0	0	---	0.00	30.031 
23:50	70.8	70.8	70.8	67	59.3	0	0	---	0.00	30.031 
23:55	70.8	70.8	70.8	67	59.3	0	0	---	0.00	30.031 

CoCoRaHS
IN-AL-39
A2 Web Hosting
Creative Commons License
GoDaddy
search engine by freefind advanced

loaded 2018-11-22 05:29:32 • last modified 2010-11-18 10:43:29
Privacy PolicyDisclaimer
• wx.awcolley.com is powered by PmWiki v.2002016 •
• all content (unless otherwise noted) © 2018 A W Colley